sensor_id;sensor_type;location;lat;lon;timestamp;pressure;altitude;pressure_sealevel;temperature;humidity
41636;BME280;27623;51.966;4.602;2024-03-22T00:00:19;64563.09;;;12.14;100.00
41636;BME280;27623;51.966;4.602;2024-03-22T00:02:44;64557.63;;;12.23;100.00
41636;BME280;27623;51.966;4.602;2024-03-22T00:05:10;64574.44;;;12.08;100.00
41636;BME280;27623;51.966;4.602;2024-03-22T00:07:35;64568.94;;;12.10;100.00
41636;BME280;27623;51.966;4.602;2024-03-22T00:10:02;64529.88;;;12.21;100.00
41636;BME280;27623;51.966;4.602;2024-03-22T00:12:27;64616.03;;;12.18;100.00
41636;BME280;27623;51.966;4.602;2024-03-22T00:14:52;64570.59;;;12.18;100.00
41636;BME280;27623;51.966;4.602;2024-03-22T00:17:20;64504.72;;;12.19;100.00
41636;BME280;27623;51.966;4.602;2024-03-22T00:19:45;64566.16;;;12.28;100.00
41636;BME280;27623;51.966;4.602;2024-03-22T00:22:10;64493.56;;;12.20;100.00
41636;BME280;27623;51.966;4.602;2024-03-22T00:24:36;64494.31;;;12.16;100.00
41636;BME280;27623;51.966;4.602;2024-03-22T00:27:01;64567.13;;;12.13;100.00
41636;BME280;27623;51.966;4.602;2024-03-22T00:29:26;64560.00;;;12.13;100.00
41636;BME280;27623;51.966;4.602;2024-03-22T00:31:52;64514.97;;;12.04;100.00
41636;BME280;27623;51.966;4.602;2024-03-22T00:34:17;64585.00;;;12.13;100.00
41636;BME280;27623;51.966;4.602;2024-03-22T00:36:44;64475.16;;;12.13;100.00
41636;BME280;27623;51.966;4.602;2024-03-22T00:39:10;64508.72;;;12.18;100.00
41636;BME280;27623;51.966;4.602;2024-03-22T00:41:35;64536.88;;;11.96;100.00
41636;BME280;27623;51.966;4.602;2024-03-22T00:44:01;64538.69;;;12.00;100.00
41636;BME280;27623;51.966;4.602;2024-03-22T00:46:26;64569.34;;;12.00;100.00
41636;BME280;27623;51.966;4.602;2024-03-22T00:48:51;64450.84;;;11.78;100.00
41636;BME280;27623;51.966;4.602;2024-03-22T00:51:17;64490.94;;;11.75;100.00
41636;BME280;27623;51.966;4.602;2024-03-22T00:53:42;64540.91;;;11.88;100.00
41636;BME280;27623;51.966;4.602;2024-03-22T00:56:07;64442.94;;;11.97;100.00
41636;BME280;27623;51.966;4.602;2024-03-22T00:58:33;64494.94;;;11.88;100.00
41636;BME280;27623;51.966;4.602;2024-03-22T01:00:58;64522.31;;;11.71;100.00
41636;BME280;27623;51.966;4.602;2024-03-22T01:03:24;64476.34;;;11.71;100.00
41636;BME280;27623;51.966;4.602;2024-03-22T01:05:49;64485.28;;;11.75;100.00
41636;BME280;27623;51.966;4.602;2024-03-22T01:08:15;64447.38;;;11.80;100.00
41636;BME280;27623;51.966;4.602;2024-03-22T01:10:40;64535.66;;;11.57;100.00
41636;BME280;27623;51.966;4.602;2024-03-22T01:13:06;64482.41;;;11.55;100.00
41636;BME280;27623;51.966;4.602;2024-03-22T01:15:31;64517.97;;;11.46;100.00
41636;BME280;27623;51.966;4.602;2024-03-22T01:17:59;64465.47;;;11.54;100.00
41636;BME280;27623;51.966;4.602;2024-03-22T01:20:26;64510.66;;;11.51;100.00
41636;BME280;27623;51.966;4.602;2024-03-22T01:22:52;64469.84;;;11.44;100.00
41636;BME280;27623;51.966;4.602;2024-03-22T01:25:17;64515.41;;;11.53;100.00
41636;BME280;27623;51.966;4.602;2024-03-22T01:27:43;64464.19;;;11.57;100.00
41636;BME280;27623;51.966;4.602;2024-03-22T01:30:08;64519.44;;;11.45;100.00
41636;BME280;27623;51.966;4.602;2024-03-22T01:32:35;64496.66;;;11.40;100.00
41636;BME280;27623;51.966;4.602;2024-03-22T01:35:00;64547.31;;;11.42;100.00
41636;BME280;27623;51.966;4.602;2024-03-22T01:37:26;64528.19;;;11.39;100.00
41636;BME280;27623;51.966;4.602;2024-03-22T01:39:51;64447.47;;;11.37;100.00
41636;BME280;27623;51.966;4.602;2024-03-22T01:42:16;64472.06;;;11.39;100.00
41636;BME280;27623;51.966;4.602;2024-03-22T01:44:42;64477.13;;;11.46;100.00
41636;BME280;27623;51.966;4.602;2024-03-22T01:47:07;64507.22;;;11.31;100.00
41636;BME280;27623;51.966;4.602;2024-03-22T01:49:33;64495.38;;;11.22;100.00
41636;BME280;27623;51.966;4.602;2024-03-22T01:51:58;64446.16;;;11.48;100.00
41636;BME280;27623;51.966;4.602;2024-03-22T01:54:24;64503.59;;;11.37;100.00
41636;BME280;27623;51.966;4.602;2024-03-22T01:56:49;64485.34;;;11.46;100.00
41636;BME280;27623;51.966;4.602;2024-03-22T01:59:15;64514.13;;;11.49;100.00
41636;BME280;27623;51.966;4.602;2024-03-22T02:01:41;64500.69;;;11.32;100.00
41636;BME280;27623;51.966;4.602;2024-03-22T02:04:09;64509.38;;;11.61;100.00
41636;BME280;27623;51.966;4.602;2024-03-22T02:06:34;64505.97;;;11.42;100.00
41636;BME280;27623;51.966;4.602;2024-03-22T02:09:00;64473.34;;;11.35;100.00
41636;BME280;27623;51.966;4.602;2024-03-22T02:11:26;64452.19;;;11.32;100.00
41636;BME280;27623;51.966;4.602;2024-03-22T02:13:51;64536.03;;;11.34;100.00
41636;BME280;27623;51.966;4.602;2024-03-22T02:16:17;64489.00;;;11.26;100.00
41636;BME280;27623;51.966;4.602;2024-03-22T02:18:42;64426.34;;;11.27;100.00
41636;BME280;27623;51.966;4.602;2024-03-22T02:21:09;64432.75;;;11.16;100.00
41636;BME280;27623;51.966;4.602;2024-03-22T02:23:36;64540.94;;;11.31;100.00
41636;BME280;27623;51.966;4.602;2024-03-22T02:26:02;64456.94;;;11.34;100.00
41636;BME280;27623;51.966;4.602;2024-03-22T02:28:28;64440.19;;;11.28;100.00
41636;BME280;27623;51.966;4.602;2024-03-22T02:30:53;64486.47;;;11.33;100.00
41636;BME280;27623;51.966;4.602;2024-03-22T02:33:19;64507.22;;;11.31;100.00
41636;BME280;27623;51.966;4.602;2024-03-22T02:35:49;64450.38;;;11.28;100.00
41636;BME280;27623;51.966;4.602;2024-03-22T02:38:15;64402.31;;;11.19;100.00
41636;BME280;27623;51.966;4.602;2024-03-22T02:40:43;64494.66;;;11.33;100.00
41636;BME280;27623;51.966;4.602;2024-03-22T02:43:08;64483.56;;;11.14;100.00
41636;BME280;27623;51.966;4.602;2024-03-22T02:45:33;64507.97;;;11.34;100.00
41636;BME280;27623;51.966;4.602;2024-03-22T02:47:59;64475.53;;;11.30;100.00
41636;BME280;27623;51.966;4.602;2024-03-22T02:50:24;64503.94;;;11.28;100.00
41636;BME280;27623;51.966;4.602;2024-03-22T02:52:52;64426.16;;;11.24;100.00
41636;BME280;27623;51.966;4.602;2024-03-22T02:55:17;64504.31;;;11.26;100.00
41636;BME280;27623;51.966;4.602;2024-03-22T02:57:43;64485.22;;;11.15;100.00
41636;BME280;27623;51.966;4.602;2024-03-22T03:00:09;64438.00;;;11.33;100.00
41636;BME280;27623;51.966;4.602;2024-03-22T03:02:34;64444.56;;;11.32;100.00
41636;BME280;27623;51.966;4.602;2024-03-22T03:05:00;64417.75;;;11.35;100.00
41636;BME280;27623;51.966;4.602;2024-03-22T03:07:26;64441.44;;;11.31;100.00
41636;BME280;27623;51.966;4.602;2024-03-22T03:09:53;64489.91;;;11.46;100.00
41636;BME280;27623;51.966;4.602;2024-03-22T03:12:18;64464.03;;;11.33;100.00
41636;BME280;27623;51.966;4.602;2024-03-22T03:14:43;64401.94;;;11.21;100.00
41636;BME280;27623;51.966;4.602;2024-03-22T03:17:09;64397.75;;;11.19;100.00
41636;BME280;27623;51.966;4.602;2024-03-22T03:19:34;64470.81;;;11.21;100.00
41636;BME280;27623;51.966;4.602;2024-03-22T03:21:59;64430.94;;;11.12;100.00
41636;BME280;27623;51.966;4.602;2024-03-22T03:24:27;64391.78;;;11.07;100.00
41636;BME280;27623;51.966;4.602;2024-03-22T03:26:52;64367.00;;;11.02;100.00
41636;BME280;27623;51.966;4.602;2024-03-22T03:29:18;64446.41;;;11.08;100.00
41636;BME280;27623;51.966;4.602;2024-03-22T03:31:43;64424.72;;;11.18;100.00
41636;BME280;27623;51.966;4.602;2024-03-22T03:34:11;64414.34;;;11.16;100.00
41636;BME280;27623;51.966;4.602;2024-03-22T03:36:36;64471.00;;;11.09;100.00
41636;BME280;27623;51.966;4.602;2024-03-22T03:39:02;64426.38;;;11.20;100.00
41636;BME280;27623;51.966;4.602;2024-03-22T03:41:27;64417.41;;;11.23;100.00
41636;BME280;27623;51.966;4.602;2024-03-22T03:43:53;64455.50;;;11.28;100.00
41636;BME280;27623;51.966;4.602;2024-03-22T03:46:18;64487.75;;;11.15;100.00
41636;BME280;27623;51.966;4.602;2024-03-22T03:48:43;64401.56;;;11.30;100.00
41636;BME280;27623;51.966;4.602;2024-03-22T03:51:09;64381.56;;;11.14;100.00
41636;BME280;27623;51.966;4.602;2024-03-22T03:53:37;64497.75;;;11.34;100.00
41636;BME280;27623;51.966;4.602;2024-03-22T03:56:03;64443.31;;;11.07;100.00
41636;BME280;27623;51.966;4.602;2024-03-22T03:58:28;64460.81;;;11.09;100.00
41636;BME280;27623;51.966;4.602;2024-03-22T04:00:53;64447.50;;;11.01;100.00
41636;BME280;27623;51.966;4.602;2024-03-22T04:03:19;64431.09;;;11.15;100.00
41636;BME280;27623;51.966;4.602;2024-03-22T04:05:46;64363.94;;;10.88;100.00
41636;BME280;27623;51.966;4.602;2024-03-22T04:08:12;64430.41;;;10.83;100.00
41636;BME280;27623;51.966;4.602;2024-03-22T04:10:37;64375.22;;;10.89;100.00
41636;BME280;27623;51.966;4.602;2024-03-22T04:13:02;64377.78;;;10.96;100.00
41636;BME280;27623;51.966;4.602;2024-03-22T04:15:28;64448.63;;;10.95;100.00
41636;BME280;27623;51.966;4.602;2024-03-22T04:17:56;64385.97;;;10.82;100.00
41636;BME280;27623;51.966;4.602;2024-03-22T04:20:22;64384.50;;;10.97;100.00
41636;BME280;27623;51.966;4.602;2024-03-22T04:22:47;64435.47;;;11.05;100.00
41636;BME280;27623;51.966;4.602;2024-03-22T04:25:14;64427.81;;;11.19;100.00
41636;BME280;27623;51.966;4.602;2024-03-22T04:27:40;64376.81;;;11.12;100.00
41636;BME280;27623;51.966;4.602;2024-03-22T04:30:06;64441.63;;;11.27;100.00
41636;BME280;27623;51.966;4.602;2024-03-22T04:32:31;64434.75;;;11.16;100.00
41636;BME280;27623;51.966;4.602;2024-03-22T04:34:57;64356.09;;;10.99;100.00
41636;BME280;27623;51.966;4.602;2024-03-22T04:37:22;64371.06;;;10.87;100.00
41636;BME280;27623;51.966;4.602;2024-03-22T04:39:48;64396.31;;;11.06;100.00
41636;BME280;27623;51.966;4.602;2024-03-22T04:42:14;64391.59;;;11.04;100.00
41636;BME280;27623;51.966;4.602;2024-03-22T04:44:41;64374.69;;;10.95;100.00
41636;BME280;27623;51.966;4.602;2024-03-22T04:47:06;64423.28;;;11.05;100.00
41636;BME280;27623;51.966;4.602;2024-03-22T04:49:31;64378.50;;;10.92;100.00
41636;BME280;27623;51.966;4.602;2024-03-22T04:51:57;64425.81;;;11.05;100.00
41636;BME280;27623;51.966;4.602;2024-03-22T04:54:22;64400.91;;;10.98;100.00
41636;BME280;27623;51.966;4.602;2024-03-22T04:56:47;64469.19;;;11.05;100.00
41636;BME280;27623;51.966;4.602;2024-03-22T04:59:13;64438.78;;;11.00;100.00
41636;BME280;27623;51.966;4.602;2024-03-22T05:01:38;64380.88;;;10.96;100.00
41636;BME280;27623;51.966;4.602;2024-03-22T05:04:03;64413.81;;;11.15;100.00
41636;BME280;27623;51.966;4.602;2024-03-22T05:06:29;64427.47;;;11.21;100.00
41636;BME280;27623;51.966;4.602;2024-03-22T05:08:54;64414.53;;;11.04;100.00
41636;BME280;27623;51.966;4.602;2024-03-22T05:11:20;64413.09;;;11.05;100.00
41636;BME280;27623;51.966;4.602;2024-03-22T05:13:45;64352.28;;;10.96;100.00
41636;BME280;27623;51.966;4.602;2024-03-22T05:16:11;64415.25;;;11.07;100.00
41636;BME280;27623;51.966;4.602;2024-03-22T05:18:37;64416.72;;;11.06;100.00
41636;BME280;27623;51.966;4.602;2024-03-22T05:21:03;64432.75;;;11.02;100.00
41636;BME280;27623;51.966;4.602;2024-03-22T05:23:28;64407.81;;;11.02;100.00
41636;BME280;27623;51.966;4.602;2024-03-22T05:25:54;64350.63;;;11.01;100.00
41636;BME280;27623;51.966;4.602;2024-03-22T05:28:22;64336.63;;;10.98;100.00
41636;BME280;27623;51.966;4.602;2024-03-22T05:30:47;64350.84;;;10.83;100.00
41636;BME280;27623;51.966;4.602;2024-03-22T05:33:13;64403.09;;;10.86;100.00
41636;BME280;27623;51.966;4.602;2024-03-22T05:35:38;64395.63;;;10.89;100.00
41636;BME280;27623;51.966;4.602;2024-03-22T05:38:03;64433.09;;;11.14;100.00
41636;BME280;27623;51.966;4.602;2024-03-22T05:40:29;64373.19;;;11.03;100.00
41636;BME280;27623;51.966;4.602;2024-03-22T05:42:57;64420.03;;;10.95;100.00
41636;BME280;27623;51.966;4.602;2024-03-22T05:45:22;64334.28;;;10.86;100.00
41636;BME280;27623;51.966;4.602;2024-03-22T05:47:47;64356.09;;;10.99;100.00
41636;BME280;27623;51.966;4.602;2024-03-22T05:50:13;64325.31;;;10.97;100.00
41636;BME280;27623;51.966;4.602;2024-03-22T05:52:39;64444.44;;;10.94;100.00
41636;BME280;27623;51.966;4.602;2024-03-22T05:55:05;64390.34;;;11.00;100.00
41636;BME280;27623;51.966;4.602;2024-03-22T05:57:30;64452.78;;;11.11;100.00
41636;BME280;27623;51.966;4.602;2024-03-22T05:59:56;64413.06;;;11.12;100.00
41636;BME280;27623;51.966;4.602;2024-03-22T06:02:22;64359.53;;;11.12;100.00
41636;BME280;27623;51.966;4.602;2024-03-22T06:04:48;64408.34;;;11.10;100.00
41636;BME280;27623;51.966;4.602;2024-03-22T06:07:13;64407.44;;;11.12;100.00
41636;BME280;27623;51.966;4.602;2024-03-22T06:09:43;64347.31;;;11.13;100.00
41636;BME280;27623;51.966;4.602;2024-03-22T06:12:12;64455.53;;;11.07;100.00
41636;BME280;27623;51.966;4.602;2024-03-22T06:14:39;64431.13;;;10.93;100.00
41636;BME280;27623;51.966;4.602;2024-03-22T06:17:05;64395.81;;;10.91;100.00
41636;BME280;27623;51.966;4.602;2024-03-22T06:19:30;64389.97;;;10.95;100.00
41636;BME280;27623;51.966;4.602;2024-03-22T06:21:56;64392.53;;;10.95;100.00
41636;BME280;27623;51.966;4.602;2024-03-22T06:24:21;64468.63;;;11.19;100.00
41636;BME280;27623;51.966;4.602;2024-03-22T06:26:46;64382.25;;;11.24;100.00
41636;BME280;27623;51.966;4.602;2024-03-22T06:29:12;64376.47;;;11.14;100.00
41636;BME280;27623;51.966;4.602;2024-03-22T06:31:40;64457.88;;;11.18;100.00
41636;BME280;27623;51.966;4.602;2024-03-22T06:34:08;64432.72;;;11.23;100.00
41636;BME280;27623;51.966;4.602;2024-03-22T06:36:33;64461.16;;;11.14;100.00
41636;BME280;27623;51.966;4.602;2024-03-22T06:38:58;64429.66;;;11.16;100.00
41636;BME280;27623;51.966;4.602;2024-03-22T06:41:25;64394.25;;;11.35;100.00
41636;BME280;27623;51.966;4.602;2024-03-22T06:43:51;64377.16;;;11.24;100.00
41636;BME280;27623;51.966;4.602;2024-03-22T06:46:16;64414.47;;;11.32;100.00
41636;BME280;27623;51.966;4.602;2024-03-22T06:48:42;64442.56;;;11.18;100.00
41636;BME280;27623;51.966;4.602;2024-03-22T06:51:07;64410.69;;;11.15;100.00
41636;BME280;27623;51.966;4.602;2024-03-22T06:53:33;64403.38;;;11.27;100.00
41636;BME280;27623;51.966;4.602;2024-03-22T06:56:04;64409.25;;;11.16;100.00
41636;BME280;27623;51.966;4.602;2024-03-22T06:58:30;64461.50;;;11.33;100.00
41636;BME280;27623;51.966;4.602;2024-03-22T07:00:55;64519.44;;;11.45;100.00
41636;BME280;27623;51.966;4.602;2024-03-22T07:03:21;64394.97;;;11.38;100.00
41636;BME280;27623;51.966;4.602;2024-03-22T07:05:49;64457.66;;;11.37;100.00
41636;BME280;27623;51.966;4.602;2024-03-22T07:08:14;64441.66;;;11.20;100.00
41636;BME280;27623;51.966;4.602;2024-03-22T07:10:40;64490.47;;;11.32;100.00
41636;BME280;27623;51.966;4.602;2024-03-22T07:13:06;64392.44;;;11.24;100.00
41636;BME280;27623;51.966;4.602;2024-03-22T07:15:31;64366.75;;;11.28;100.00
41636;BME280;27623;51.966;4.602;2024-03-22T07:17:58;64434.91;;;11.25;100.00
41636;BME280;27623;51.966;4.602;2024-03-22T07:20:23;64365.31;;;11.22;100.00
41636;BME280;27623;51.966;4.602;2024-03-22T07:22:48;64403.19;;;11.24;100.00
41636;BME280;27623;51.966;4.602;2024-03-22T07:25:14;64451.50;;;11.22;100.00
41636;BME280;27623;51.966;4.602;2024-03-22T07:27:39;64477.00;;;11.29;100.00
41636;BME280;27623;51.966;4.602;2024-03-22T07:30:05;64378.03;;;11.29;100.00
41636;BME280;27623;51.966;4.602;2024-03-22T07:32:30;64450.41;;;11.14;100.00
41636;BME280;27623;51.966;4.602;2024-03-22T07:34:59;64433.84;;;11.10;100.00
41636;BME280;27623;51.966;4.602;2024-03-22T07:37:24;64393.41;;;11.15;100.00
41636;BME280;27623;51.966;4.602;2024-03-22T07:39:50;64419.81;;;11.07;100.00
41636;BME280;27623;51.966;4.602;2024-03-22T07:42:16;64404.88;;;11.05;100.00
41636;BME280;27623;51.966;4.602;2024-03-22T07:44:41;64391.78;;;11.07;100.00
41636;BME280;27623;51.966;4.602;2024-03-22T07:47:06;64408.91;;;10.96;100.00
41636;BME280;27623;51.966;4.602;2024-03-22T07:49:32;64372.84;;;10.98;100.00
41636;BME280;27623;51.966;4.602;2024-03-22T07:51:59;64485.03;;;11.13;100.00
41636;BME280;27623;51.966;4.602;2024-03-22T07:54:27;64399.41;;;11.14;100.00
41636;BME280;27623;51.966;4.602;2024-03-22T07:56:52;64422.34;;;11.14;100.00
41636;BME280;27623;51.966;4.602;2024-03-22T07:59:18;64420.53;;;11.10;100.00
41636;BME280;27623;51.966;4.602;2024-03-22T08:01:43;64417.81;;;11.07;100.00
41636;BME280;27623;51.966;4.602;2024-03-22T08:04:08;64438.75;;;11.15;100.00
41636;BME280;27623;51.966;4.602;2024-03-22T08:06:34;64442.41;;;11.16;100.00
41636;BME280;27623;51.966;4.602;2024-03-22T08:08:59;64375.56;;;11.08;100.00
41636;BME280;27623;51.966;4.602;2024-03-22T08:11:27;64398.88;;;11.06;100.00
41636;BME280;27623;51.966;4.602;2024-03-22T08:13:52;64390.13;;;11.12;100.00
41636;BME280;27623;51.966;4.602;2024-03-22T08:16:18;64394.88;;;11.07;100.00
41636;BME280;27623;51.966;4.602;2024-03-22T08:18:44;64459.53;;;11.06;100.00
41636;BME280;27623;51.966;4.602;2024-03-22T08:21:10;64383.78;;;10.94;100.00
41636;BME280;27623;51.966;4.602;2024-03-22T08:23:35;64382.88;;;10.89;100.00
41636;BME280;27623;51.966;4.602;2024-03-22T08:26:01;64427.31;;;10.97;100.00
41636;BME280;27623;51.966;4.602;2024-03-22T08:28:26;64407.81;;;11.02;100.00
41636;BME280;27623;51.966;4.602;2024-03-22T08:30:54;64387.44;;;10.88;100.00
41636;BME280;27623;51.966;4.602;2024-03-22T08:33:21;64406.59;;;10.78;100.00
41636;BME280;27623;51.966;4.602;2024-03-22T08:35:47;64425.84;;;10.91;100.00
41636;BME280;27623;51.966;4.602;2024-03-22T08:38:13;64396.94;;;10.78;100.00
41636;BME280;27623;51.966;4.602;2024-03-22T08:40:40;64483.59;;;10.92;100.00
41636;BME280;27623;51.966;4.602;2024-03-22T08:43:06;64432.03;;;10.92;100.00
41636;BME280;27623;51.966;4.602;2024-03-22T08:45:36;64454.44;;;10.98;100.00
41636;BME280;27623;51.966;4.602;2024-03-22T08:48:02;64436.22;;;10.93;100.00
41636;BME280;27623;51.966;4.602;2024-03-22T08:50:27;64488.13;;;10.92;100.00
41636;BME280;27623;51.966;4.602;2024-03-22T08:52:53;64489.97;;;10.96;100.00
41636;BME280;27623;51.966;4.602;2024-03-22T08:55:18;64562.44;;;10.97;100.00
41636;BME280;27623;51.966;4.602;2024-03-22T08:57:44;64571.19;;;11.05;100.00
41636;BME280;27623;51.966;4.602;2024-03-22T09:00:10;64527.66;;;10.95;100.00
41636;BME280;27623;51.966;4.602;2024-03-22T09:02:36;64668.38;;;10.82;100.00
41636;BME280;27623;51.966;4.602;2024-03-22T09:05:03;64592.84;;;10.94;100.00
41636;BME280;27623;51.966;4.602;2024-03-22T09:07:31;64643.63;;;10.85;100.00
41636;BME280;27623;51.966;4.602;2024-03-22T09:09:57;64727.19;;;10.84;100.00
41636;BME280;27623;51.966;4.602;2024-03-22T09:12:25;64775.63;;;10.77;100.00
41636;BME280;27623;51.966;4.602;2024-03-22T09:14:50;64852.88;;;10.87;100.00
41636;BME280;27623;51.966;4.602;2024-03-22T09:17:15;64845.25;;;10.94;100.00
41636;BME280;27623;51.966;4.602;2024-03-22T09:19:41;64911.41;;;10.73;100.00
41636;BME280;27623;51.966;4.602;2024-03-22T09:22:06;64907.66;;;10.84;100.00
41636;BME280;27623;51.966;4.602;2024-03-22T09:24:32;64867.47;;;10.91;100.00
41636;BME280;27623;51.966;4.602;2024-03-22T09:26:57;64779.00;;;11.01;100.00
41636;BME280;27623;51.966;4.602;2024-03-22T09:29:24;64729.63;;;10.96;100.00
41636;BME280;27623;51.966;4.602;2024-03-22T09:31:49;64763.31;;;10.96;100.00
41636;BME280;27623;51.966;4.602;2024-03-22T09:34:16;64748.00;;;10.89;100.00
41636;BME280;27623;51.966;4.602;2024-03-22T09:36:41;64735.81;;;10.97;100.00
41636;BME280;27623;51.966;4.602;2024-03-22T09:39:07;64809.75;;;10.97;100.00
41636;BME280;27623;51.966;4.602;2024-03-22T09:41:43;64719.44;;;11.03;100.00
41636;BME280;27623;51.966;4.602;2024-03-22T09:44:12;64718.69;;;10.93;100.00
41636;BME280;27623;51.966;4.602;2024-03-22T09:46:40;64702.06;;;10.82;100.00
41636;BME280;27623;51.966;4.602;2024-03-22T09:49:09;64689.53;;;10.92;100.00
41636;BME280;27623;51.966;4.602;2024-03-22T09:51:36;64681.50;;;10.87;100.00
41636;BME280;27623;51.966;4.602;2024-03-22T09:54:02;64674.09;;;10.96;100.00
41636;BME280;27623;51.966;4.602;2024-03-22T09:56:30;64781.53;;;11.01;100.00
41636;BME280;27623;51.966;4.602;2024-03-22T09:58:58;64709.75;;;10.89;100.00
41636;BME280;27623;51.966;4.602;2024-03-22T10:01:26;64804.88;;;10.99;100.00
41636;BME280;27623;51.966;4.602;2024-03-22T10:03:52;64805.75;;;10.98;100.00
41636;BME280;27623;51.966;4.602;2024-03-22T10:06:18;64752.59;;;11.03;100.00
41636;BME280;27623;51.966;4.602;2024-03-22T10:08:44;64757.31;;;10.98;100.00
41636;BME280;27623;51.966;4.602;2024-03-22T10:11:10;64783.72;;;10.96;100.00
41636;BME280;27623;51.966;4.602;2024-03-22T10:13:35;64805.03;;;11.02;100.00
41636;BME280;27623;51.966;4.602;2024-03-22T10:16:00;64910.25;;;10.91;100.00
41636;BME280;27623;51.966;4.602;2024-03-22T10:18:26;64978.84;;;11.07;100.00
41636;BME280;27623;51.966;4.602;2024-03-22T10:21:04;64930.53;;;11.02;100.00
41636;BME280;27623;51.966;4.602;2024-03-22T10:23:30;64961.03;;;10.88;100.00
41636;BME280;27623;51.966;4.602;2024-03-22T10:25:59;64953.31;;;11.00;100.00
41636;BME280;27623;51.966;4.602;2024-03-22T10:28:28;64860.09;;;11.08;100.00
41636;BME280;27623;51.966;4.602;2024-03-22T10:30:54;64795.03;;;10.97;100.00
41636;BME280;27623;51.966;4.602;2024-03-22T10:33:20;64897.03;;;11.05;100.00
41636;BME280;27623;51.966;4.602;2024-03-22T10:35:52;64907.53;;;11.21;100.00
41636;BME280;27623;51.966;4.602;2024-03-22T10:38:22;64916.78;;;11.16;100.00
41636;BME280;27623;51.966;4.602;2024-03-22T10:40:48;64838.13;;;11.21;100.00
41636;BME280;27623;51.966;4.602;2024-03-22T10:43:15;64790.69;;;11.08;100.00
41636;BME280;27623;51.966;4.602;2024-03-22T10:45:41;64865.94;;;11.11;100.00
41636;BME280;27623;51.966;4.602;2024-03-22T10:48:10;64845.94;;;11.16;100.00
41636;BME280;27623;51.966;4.602;2024-03-22T10:50:40;64850.31;;;11.20;100.00
41636;BME280;27623;51.966;4.602;2024-03-22T10:53:16;64813.28;;;11.10;100.00
41636;BME280;27623;51.966;4.602;2024-03-22T10:55:45;64889.38;;;11.05;100.00
41636;BME280;27623;51.966;4.602;2024-03-22T10:58:18;65034.84;;;10.93;100.00
41636;BME280;27623;51.966;4.602;2024-03-22T11:00:45;65236.50;;;10.95;100.00
41636;BME280;27623;51.966;4.602;2024-03-22T11:03:12;65315.72;;;11.10;100.00
41636;BME280;27623;51.966;4.602;2024-03-22T11:05:48;65222.03;;;11.06;100.00
41636;BME280;27623;51.966;4.602;2024-03-22T11:08:24;65339.34;;;11.17;100.00
41636;BME280;27623;51.966;4.602;2024-03-22T11:10:49;65101.25;;;11.26;100.00
41636;BME280;27623;51.966;4.602;2024-03-22T11:13:16;65014.88;;;11.24;100.00
41636;BME280;27623;51.966;4.602;2024-03-22T11:15:42;64981.53;;;11.21;100.00
41636;BME280;27623;51.966;4.602;2024-03-22T11:18:07;65065.91;;;11.05;100.00
41636;BME280;27623;51.966;4.602;2024-03-22T11:20:36;65172.97;;;11.17;100.00
41636;BME280;27623;51.966;4.602;2024-03-22T11:23:01;65178.28;;;11.19;100.00
41636;BME280;27623;51.966;4.602;2024-03-22T11:25:28;65298.22;;;11.38;100.00
41636;BME280;27623;51.966;4.602;2024-03-22T11:27:57;65300.84;;;11.45;100.00
41636;BME280;27623;51.966;4.602;2024-03-22T11:30:24;65193.03;;;11.56;100.00
41636;BME280;27623;51.966;4.602;2024-03-22T11:32:50;65142.63;;;11.45;100.00
41636;BME280;27623;51.966;4.602;2024-03-22T11:35:15;65078.81;;;11.45;100.00
41636;BME280;27623;51.966;4.602;2024-03-22T11:37:41;64848.44;;;11.49;100.00
41636;BME280;27623;51.966;4.602;2024-03-22T11:40:13;64854.78;;;11.46;100.00
41636;BME280;27623;51.966;4.602;2024-03-22T11:42:40;64811.28;;;11.57;100.00
41636;BME280;27623;51.966;4.602;2024-03-22T11:45:08;64894.44;;;11.63;100.00
41636;BME280;27623;51.966;4.602;2024-03-22T11:47:35;64745.63;;;11.53;100.00
41636;BME280;27623;51.966;4.602;2024-03-22T11:50:01;64788.69;;;11.62;100.00
41636;BME280;27623;51.966;4.602;2024-03-22T11:52:27;64707.34;;;11.46;100.00
41636;BME280;27623;51.966;4.602;2024-03-22T11:54:55;64691.66;;;11.48;100.00
41636;BME280;27623;51.966;4.602;2024-03-22T11:57:22;64642.84;;;11.57;100.00
41636;BME280;27623;51.966;4.602;2024-03-22T11:59:48;64686.59;;;11.62;100.00
41636;BME280;27623;51.966;4.602;2024-03-22T12:02:14;64685.13;;;11.56;100.00
41636;BME280;27623;51.966;4.602;2024-03-22T12:04:46;64717.19;;;11.48;100.00
41636;BME280;27623;51.966;4.602;2024-03-22T12:07:16;64704.44;;;11.55;100.00
41636;BME280;27623;51.966;4.602;2024-03-22T12:09:42;64728.50;;;11.42;100.00
41636;BME280;27623;51.966;4.602;2024-03-22T12:12:10;64646.09;;;11.46;100.00
41636;BME280;27623;51.966;4.602;2024-03-22T12:14:35;64777.75;;;11.59;100.00
41636;BME280;27623;51.966;4.602;2024-03-22T12:17:02;64757.13;;;11.57;100.00
41636;BME280;27623;51.966;4.602;2024-03-22T12:19:28;64833.19;;;11.70;100.00
41636;BME280;27623;51.966;4.602;2024-03-22T12:21:53;64798.78;;;11.81;100.00
41636;BME280;27623;51.966;4.602;2024-03-22T12:24:19;64736.56;;;11.76;100.00
41636;BME280;27623;51.966;4.602;2024-03-22T12:26:44;64739.53;;;11.88;100.00
41636;BME280;27623;51.966;4.602;2024-03-22T12:29:10;64648.88;;;11.91;100.00
41636;BME280;27623;51.966;4.602;2024-03-22T12:31:39;64624.25;;;11.97;100.00
41636;BME280;27623;51.966;4.602;2024-03-22T12:34:04;64577.56;;;11.94;100.00
41636;BME280;27623;51.966;4.602;2024-03-22T12:36:30;64592.88;;;11.94;100.00
41636;BME280;27623;51.966;4.602;2024-03-22T12:38:55;64619.31;;;11.85;100.00
41636;BME280;27623;51.966;4.602;2024-03-22T12:41:20;64612.59;;;11.84;100.00
41636;BME280;27623;51.966;4.602;2024-03-22T12:43:46;64644.13;;;11.89;100.00